sensor_id;sensor_type;location;lat;lon;timestamp;P1;durP1;ratioP1;P2;durP2;ratioP2
22289;SDS011;11313;50.116;8.424;2024-01-11T00:00:34;7.85;;;5.88;;
22289;SDS011;11313;50.116;8.424;2024-01-11T00:03:00;7.32;;;6.00;;
22289;SDS011;11313;50.116;8.424;2024-01-11T00:05:26;7.82;;;5.88;;
22289;SDS011;11313;50.116;8.424;2024-01-11T00:07:51;8.07;;;5.80;;
22289;SDS011;11313;50.116;8.424;2024-01-11T00:10:17;7.63;;;5.93;;
22289;SDS011;11313;50.116;8.424;2024-01-11T00:12:43;7.68;;;5.88;;
22289;SDS011;11313;50.116;8.424;2024-01-11T00:15:09;7.18;;;5.68;;
22289;SDS011;11313;50.116;8.424;2024-01-11T00:17:34;6.30;;;5.35;;
22289;SDS011;11313;50.116;8.424;2024-01-11T00:20:01;7.15;;;5.80;;
22289;SDS011;11313;50.116;8.424;2024-01-11T00:22:26;7.32;;;5.75;;
22289;SDS011;11313;50.116;8.424;2024-01-11T00:24:52;8.77;;;5.90;;
22289;SDS011;11313;50.116;8.424;2024-01-11T00:27:18;8.57;;;5.57;;
22289;SDS011;11313;50.116;8.424;2024-01-11T00:29:43;9.07;;;5.95;;
22289;SDS011;11313;50.116;8.424;2024-01-11T00:32:09;8.27;;;5.68;;
22289;SDS011;11313;50.116;8.424;2024-01-11T00:34:35;6.65;;;5.55;;
22289;SDS011;11313;50.116;8.424;2024-01-11T00:37:01;8.18;;;5.95;;
22289;SDS011;11313;50.116;8.424;2024-01-11T00:39:26;9.35;;;5.72;;
22289;SDS011;11313;50.116;8.424;2024-01-11T00:41:52;8.07;;;5.88;;
22289;SDS011;11313;50.116;8.424;2024-01-11T00:44:17;7.20;;;5.72;;
22289;SDS011;11313;50.116;8.424;2024-01-11T00:46:43;7.15;;;6.03;;
22289;SDS011;11313;50.116;8.424;2024-01-11T00:49:08;8.35;;;5.70;;
22289;SDS011;11313;50.116;8.424;2024-01-11T00:51:34;8.18;;;6.05;;
22289;SDS011;11313;50.116;8.424;2024-01-11T00:54:00;7.28;;;5.50;;
22289;SDS011;11313;50.116;8.424;2024-01-11T00:56:25;7.38;;;5.90;;
22289;SDS011;11313;50.116;8.424;2024-01-11T00:58:52;7.72;;;5.90;;
22289;SDS011;11313;50.116;8.424;2024-01-11T01:01:17;6.40;;;5.70;;
22289;SDS011;11313;50.116;8.424;2024-01-11T01:03:43;6.78;;;5.43;;
22289;SDS011;11313;50.116;8.424;2024-01-11T01:06:12;7.20;;;5.43;;
22289;SDS011;11313;50.116;8.424;2024-01-11T01:08:37;7.85;;;5.75;;
22289;SDS011;11313;50.116;8.424;2024-01-11T01:11:03;8.32;;;5.63;;
22289;SDS011;11313;50.116;8.424;2024-01-11T01:13:28;8.02;;;5.70;;
22289;SDS011;11313;50.116;8.424;2024-01-11T01:15:54;6.68;;;5.45;;
22289;SDS011;11313;50.116;8.424;2024-01-11T01:18:20;8.55;;;6.13;;
22289;SDS011;11313;50.116;8.424;2024-01-11T01:20:45;7.25;;;5.70;;
22289;SDS011;11313;50.116;8.424;2024-01-11T01:23:11;7.32;;;5.80;;
22289;SDS011;11313;50.116;8.424;2024-01-11T01:25:37;7.05;;;5.32;;
22289;SDS011;11313;50.116;8.424;2024-01-11T01:28:02;6.75;;;5.40;;
22289;SDS011;11313;50.116;8.424;2024-01-11T01:30:28;7.90;;;5.60;;
22289;SDS011;11313;50.116;8.424;2024-01-11T01:32:53;6.40;;;5.07;;
22289;SDS011;11313;50.116;8.424;2024-01-11T01:35:19;8.80;;;5.90;;
22289;SDS011;11313;50.116;8.424;2024-01-11T01:37:45;6.75;;;5.50;;
22289;SDS011;11313;50.116;8.424;2024-01-11T01:40:11;7.80;;;5.68;;
22289;SDS011;11313;50.116;8.424;2024-01-11T01:42:41;5.95;;;5.22;;
22289;SDS011;11313;50.116;8.424;2024-01-11T01:45:10;7.90;;;5.35;;
22289;SDS011;11313;50.116;8.424;2024-01-11T01:47:36;7.57;;;5.68;;
22289;SDS011;11313;50.116;8.424;2024-01-11T01:50:04;6.90;;;5.47;;
22289;SDS011;11313;50.116;8.424;2024-01-11T01:52:31;7.38;;;5.95;;
22289;SDS011;11313;50.116;8.424;2024-01-11T01:54:58;6.78;;;5.38;;
22289;SDS011;11313;50.116;8.424;2024-01-11T01:57:24;6.90;;;5.22;;
22289;SDS011;11313;50.116;8.424;2024-01-11T01:59:50;6.85;;;5.63;;
22289;SDS011;11313;50.116;8.424;2024-01-11T02:02:17;7.10;;;5.45;;
22289;SDS011;11313;50.116;8.424;2024-01-11T02:04:44;6.05;;;5.00;;
22289;SDS011;11313;50.116;8.424;2024-01-11T02:07:10;8.23;;;5.63;;
22289;SDS011;11313;50.116;8.424;2024-01-11T02:09:36;6.65;;;5.60;;
22289;SDS011;11313;50.116;8.424;2024-01-11T02:12:02;7.60;;;5.10;;
22289;SDS011;11313;50.116;8.424;2024-01-11T02:14:29;8.20;;;5.47;;
22289;SDS011;11313;50.116;8.424;2024-01-11T02:16:55;5.70;;;4.97;;
22289;SDS011;11313;50.116;8.424;2024-01-11T02:19:21;7.78;;;5.65;;
22289;SDS011;11313;50.116;8.424;2024-01-11T02:21:48;7.20;;;5.28;;
22289;SDS011;11313;50.116;8.424;2024-01-11T02:24:16;8.00;;;5.60;;
22289;SDS011;11313;50.116;8.424;2024-01-11T02:29:38;7.40;;;5.30;;
22289;SDS011;11313;50.116;8.424;2024-01-11T02:32:03;5.90;;;5.00;;
22289;SDS011;11313;50.116;8.424;2024-01-11T02:34:31;7.15;;;5.68;;
22289;SDS011;11313;50.116;8.424;2024-01-11T02:36:56;8.35;;;5.60;;
22289;SDS011;11313;50.116;8.424;2024-01-11T02:39:22;6.70;;;5.13;;
22289;SDS011;11313;50.116;8.424;2024-01-11T02:41:50;7.13;;;5.07;;
22289;SDS011;11313;50.116;8.424;2024-01-11T02:44:16;7.00;;;5.18;;
22289;SDS011;11313;50.116;8.424;2024-01-11T02:46:42;6.85;;;5.22;;
22289;SDS011;11313;50.116;8.424;2024-01-11T02:49:07;6.95;;;5.50;;
22289;SDS011;11313;50.116;8.424;2024-01-11T02:51:33;5.93;;;5.05;;
22289;SDS011;11313;50.116;8.424;2024-01-11T02:53:59;6.97;;;5.22;;
22289;SDS011;11313;50.116;8.424;2024-01-11T02:56:24;6.80;;;4.90;;
22289;SDS011;11313;50.116;8.424;2024-01-11T02:58:53;6.53;;;5.15;;
22289;SDS011;11313;50.116;8.424;2024-01-11T03:01:18;6.03;;;5.40;;
22289;SDS011;11313;50.116;8.424;2024-01-11T03:03:44;6.65;;;5.28;;
22289;SDS011;11313;50.116;8.424;2024-01-11T03:06:09;6.82;;;5.38;;
22289;SDS011;11313;50.116;8.424;2024-01-11T03:08:35;7.60;;;5.28;;
22289;SDS011;11313;50.116;8.424;2024-01-11T03:11:00;6.65;;;5.28;;
22289;SDS011;11313;50.116;8.424;2024-01-11T03:13:26;7.72;;;5.07;;
22289;SDS011;11313;50.116;8.424;2024-01-11T03:15:52;7.40;;;5.50;;
22289;SDS011;11313;50.116;8.424;2024-01-11T03:18:17;6.45;;;5.10;;
22289;SDS011;11313;50.116;8.424;2024-01-11T03:20:43;6.47;;;5.10;;
22289;SDS011;11313;50.116;8.424;2024-01-11T03:23:08;6.55;;;5.40;;
22289;SDS011;11313;50.116;8.424;2024-01-11T03:25:34;5.53;;;4.82;;
22289;SDS011;11313;50.116;8.424;2024-01-11T03:27:59;5.75;;;5.07;;
22289;SDS011;11313;50.116;8.424;2024-01-11T03:30:25;7.05;;;5.55;;
22289;SDS011;11313;50.116;8.424;2024-01-11T03:32:51;6.78;;;5.10;;
22289;SDS011;11313;50.116;8.424;2024-01-11T03:35:17;7.13;;;4.90;;
22289;SDS011;11313;50.116;8.424;2024-01-11T03:37:43;6.43;;;5.30;;
22289;SDS011;11313;50.116;8.424;2024-01-11T03:40:09;5.88;;;4.63;;
22289;SDS011;11313;50.116;8.424;2024-01-11T03:42:34;6.03;;;4.88;;
22289;SDS011;11313;50.116;8.424;2024-01-11T03:45:00;6.97;;;5.05;;
22289;SDS011;11313;50.116;8.424;2024-01-11T03:47:26;6.38;;;5.05;;
22289;SDS011;11313;50.116;8.424;2024-01-11T03:49:51;5.97;;;5.05;;
22289;SDS011;11313;50.116;8.424;2024-01-11T03:52:17;6.90;;;5.20;;
22289;SDS011;11313;50.116;8.424;2024-01-11T03:54:43;5.47;;;4.57;;
22289;SDS011;11313;50.116;8.424;2024-01-11T03:57:08;6.47;;;4.95;;
22289;SDS011;11313;50.116;8.424;2024-01-11T03:59:34;6.05;;;4.97;;
22289;SDS011;11313;50.116;8.424;2024-01-11T04:02:00;6.15;;;4.85;;
22289;SDS011;11313;50.116;8.424;2024-01-11T04:04:25;6.97;;;4.95;;
22289;SDS011;11313;50.116;8.424;2024-01-11T04:06:51;6.32;;;4.95;;
22289;SDS011;11313;50.116;8.424;2024-01-11T04:09:20;6.68;;;5.05;;
22289;SDS011;11313;50.116;8.424;2024-01-11T04:11:45;5.57;;;4.95;;
22289;SDS011;11313;50.116;8.424;2024-01-11T04:14:11;7.47;;;4.80;;
22289;SDS011;11313;50.116;8.424;2024-01-11T04:16:40;6.82;;;4.75;;
22289;SDS011;11313;50.116;8.424;2024-01-11T04:19:06;6.20;;;4.68;;
22289;SDS011;11313;50.116;8.424;2024-01-11T04:21:32;7.15;;;4.70;;
22289;SDS011;11313;50.116;8.424;2024-01-11T04:24:01;5.85;;;4.93;;
22289;SDS011;11313;50.116;8.424;2024-01-11T04:26:26;7.03;;;5.30;;
22289;SDS011;11313;50.116;8.424;2024-01-11T04:28:52;6.03;;;4.82;;
22289;SDS011;11313;50.116;8.424;2024-01-11T04:31:18;8.27;;;5.25;;
22289;SDS011;11313;50.116;8.424;2024-01-11T04:33:44;6.05;;;4.68;;
22289;SDS011;11313;50.116;8.424;2024-01-11T04:36:10;7.57;;;5.45;;
22289;SDS011;11313;50.116;8.424;2024-01-11T04:38:36;6.10;;;4.60;;
22289;SDS011;11313;50.116;8.424;2024-01-11T04:41:02;5.22;;;4.57;;
22289;SDS011;11313;50.116;8.424;2024-01-11T04:43:38;5.70;;;4.70;;
22289;SDS011;11313;50.116;8.424;2024-01-11T04:46:12;6.55;;;5.10;;
22289;SDS011;11313;50.116;8.424;2024-01-11T04:48:39;7.05;;;4.75;;
22289;SDS011;11313;50.116;8.424;2024-01-11T04:51:07;6.07;;;4.60;;
22289;SDS011;11313;50.116;8.424;2024-01-11T04:53:35;6.18;;;5.13;;
22289;SDS011;11313;50.116;8.424;2024-01-11T04:56:06;6.13;;;4.95;;
22289;SDS011;11313;50.116;8.424;2024-01-11T04:58:32;7.95;;;4.97;;
22289;SDS011;11313;50.116;8.424;2024-01-11T05:00:58;6.30;;;4.55;;
22289;SDS011;11313;50.116;8.424;2024-01-11T05:03:24;7.05;;;5.15;;
22289;SDS011;11313;50.116;8.424;2024-01-11T05:05:50;5.85;;;4.70;;
22289;SDS011;11313;50.116;8.424;2024-01-11T05:08:16;5.35;;;4.47;;
22289;SDS011;11313;50.116;8.424;2024-01-11T05:10:42;6.03;;;4.45;;
22289;SDS011;11313;50.116;8.424;2024-01-11T05:13:07;5.93;;;5.10;;
22289;SDS011;11313;50.116;8.424;2024-01-11T05:15:34;5.97;;;4.93;;
22289;SDS011;11313;50.116;8.424;2024-01-11T05:17:59;6.18;;;4.65;;
22289;SDS011;11313;50.116;8.424;2024-01-11T05:20:25;7.30;;;4.95;;
22289;SDS011;11313;50.116;8.424;2024-01-11T05:22:50;6.40;;;5.10;;
22289;SDS011;11313;50.116;8.424;2024-01-11T05:25:16;5.22;;;4.47;;
22289;SDS011;11313;50.116;8.424;2024-01-11T05:27:41;6.22;;;4.90;;
22289;SDS011;11313;50.116;8.424;2024-01-11T05:30:07;6.03;;;5.05;;
22289;SDS011;11313;50.116;8.424;2024-01-11T05:32:33;6.60;;;4.93;;
22289;SDS011;11313;50.116;8.424;2024-01-11T05:34:58;7.65;;;5.05;;
22289;SDS011;11313;50.116;8.424;2024-01-11T05:37:24;5.97;;;4.78;;
22289;SDS011;11313;50.116;8.424;2024-01-11T05:39:50;5.53;;;4.53;;
22289;SDS011;11313;50.116;8.424;2024-01-11T05:42:16;8.13;;;5.00;;
22289;SDS011;11313;50.116;8.424;2024-01-11T05:44:42;5.32;;;4.82;;
22289;SDS011;11313;50.116;8.424;2024-01-11T05:47:08;7.72;;;4.85;;
22289;SDS011;11313;50.116;8.424;2024-01-11T05:49:34;5.57;;;4.88;;
22289;SDS011;11313;50.116;8.424;2024-01-11T05:52:00;5.85;;;4.95;;
22289;SDS011;11313;50.116;8.424;2024-01-11T05:54:25;7.10;;;4.88;;
22289;SDS011;11313;50.116;8.424;2024-01-11T05:56:53;6.15;;;4.90;;
22289;SDS011;11313;50.116;8.424;2024-01-11T05:59:21;6.25;;;4.78;;
22289;SDS011;11313;50.116;8.424;2024-01-11T06:01:47;5.55;;;4.70;;
22289;SDS011;11313;50.116;8.424;2024-01-11T06:04:12;7.20;;;5.10;;
22289;SDS011;11313;50.116;8.424;2024-01-11T06:06:38;6.60;;;4.78;;
22289;SDS011;11313;50.116;8.424;2024-01-11T06:09:04;5.88;;;4.90;;
22289;SDS011;11313;50.116;8.424;2024-01-11T06:11:29;5.90;;;4.88;;
22289;SDS011;11313;50.116;8.424;2024-01-11T06:13:55;5.72;;;4.72;;
22289;SDS011;11313;50.116;8.424;2024-01-11T06:16:22;7.07;;;5.00;;
22289;SDS011;11313;50.116;8.424;2024-01-11T06:18:47;6.63;;;4.88;;
22289;SDS011;11313;50.116;8.424;2024-01-11T06:21:13;5.85;;;4.80;;
22289;SDS011;11313;50.116;8.424;2024-01-11T06:23:40;7.25;;;5.13;;
22289;SDS011;11313;50.116;8.424;2024-01-11T06:26:05;5.00;;;4.50;;
22289;SDS011;11313;50.116;8.424;2024-01-11T06:28:32;7.57;;;5.43;;
22289;SDS011;11313;50.116;8.424;2024-01-11T06:30:58;7.05;;;4.53;;
22289;SDS011;11313;50.116;8.424;2024-01-11T06:33:23;7.70;;;5.22;;
22289;SDS011;11313;50.116;8.424;2024-01-11T06:35:49;8.27;;;5.10;;
22289;SDS011;11313;50.116;8.424;2024-01-11T06:38:14;7.35;;;5.03;;
22289;SDS011;11313;50.116;8.424;2024-01-11T06:40:40;6.80;;;5.00;;
22289;SDS011;11313;50.116;8.424;2024-01-11T06:43:08;6.95;;;5.03;;
22289;SDS011;11313;50.116;8.424;2024-01-11T06:45:33;6.28;;;4.85;;
22289;SDS011;11313;50.116;8.424;2024-01-11T06:48:00;7.28;;;5.07;;
22289;SDS011;11313;50.116;8.424;2024-01-11T06:50:25;7.97;;;4.80;;
22289;SDS011;11313;50.116;8.424;2024-01-11T06:52:51;8.80;;;5.00;;
22289;SDS011;11313;50.116;8.424;2024-01-11T06:55:16;6.70;;;5.10;;
22289;SDS011;11313;50.116;8.424;2024-01-11T06:57:42;8.85;;;4.65;;
22289;SDS011;11313;50.116;8.424;2024-01-11T07:00:11;8.82;;;5.00;;
22289;SDS011;11313;50.116;8.424;2024-01-11T07:02:38;8.25;;;5.22;;
22289;SDS011;11313;50.116;8.424;2024-01-11T07:05:05;8.98;;;5.38;;
22289;SDS011;11313;50.116;8.424;2024-01-11T07:07:31;7.10;;;4.95;;
22289;SDS011;11313;50.116;8.424;2024-01-11T07:09:57;7.15;;;4.85;;
22289;SDS011;11313;50.116;8.424;2024-01-11T07:12:23;11.52;;;5.30;;
22289;SDS011;11313;50.116;8.424;2024-01-11T07:14:49;11.27;;;5.28;;
22289;SDS011;11313;50.116;8.424;2024-01-11T07:17:15;6.75;;;4.78;;
22289;SDS011;11313;50.116;8.424;2024-01-11T07:19:40;9.82;;;5.28;;
22289;SDS011;11313;50.116;8.424;2024-01-11T07:22:06;10.38;;;5.40;;
22289;SDS011;11313;50.116;8.424;2024-01-11T07:24:31;7.60;;;4.75;;
22289;SDS011;11313;50.116;8.424;2024-01-11T07:27:03;12.70;;;5.25;;
22289;SDS011;11313;50.116;8.424;2024-01-11T07:29:29;9.45;;;4.88;;
22289;SDS011;11313;50.116;8.424;2024-01-11T07:31:55;7.53;;;5.30;;
22289;SDS011;11313;50.116;8.424;2024-01-11T07:34:20;9.18;;;5.28;;
22289;SDS011;11313;50.116;8.424;2024-01-11T07:36:46;11.70;;;5.60;;
22289;SDS011;11313;50.116;8.424;2024-01-11T07:39:11;10.38;;;5.13;;
22289;SDS011;11313;50.116;8.424;2024-01-11T07:41:37;10.52;;;5.32;;
22289;SDS011;11313;50.116;8.424;2024-01-11T07:44:02;9.45;;;5.25;;
22289;SDS011;11313;50.116;8.424;2024-01-11T07:46:28;9.65;;;5.40;;
22289;SDS011;11313;50.116;8.424;2024-01-11T07:48:54;10.35;;;5.50;;
22289;SDS011;11313;50.116;8.424;2024-01-11T07:51:19;11.13;;;5.05;;
22289;SDS011;11313;50.116;8.424;2024-01-11T07:53:45;14.63;;;5.70;;
22289;SDS011;11313;50.116;8.424;2024-01-11T07:56:11;10.95;;;5.30;;
22289;SDS011;11313;50.116;8.424;2024-01-11T07:58:36;8.77;;;4.97;;
22289;SDS011;11313;50.116;8.424;2024-01-11T08:01:05;11.73;;;5.32;;
22289;SDS011;11313;50.116;8.424;2024-01-11T08:03:31;11.18;;;4.82;;
22289;SDS011;11313;50.116;8.424;2024-01-11T08:05:58;14.85;;;5.72;;
22289;SDS011;11313;50.116;8.424;2024-01-11T08:08:23;10.55;;;5.43;;
22289;SDS011;11313;50.116;8.424;2024-01-11T08:10:49;12.77;;;5.00;;
22289;SDS011;11313;50.116;8.424;2024-01-11T08:13:15;13.18;;;5.75;;
22289;SDS011;11313;50.116;8.424;2024-01-11T08:15:40;12.32;;;5.53;;
22289;SDS011;11313;50.116;8.424;2024-01-11T08:18:06;9.93;;;5.97;;
22289;SDS011;11313;50.116;8.424;2024-01-11T08:20:32;12.02;;;5.63;;
22289;SDS011;11313;50.116;8.424;2024-01-11T08:22:58;14.30;;;5.32;;
22289;SDS011;11313;50.116;8.424;2024-01-11T08:25:23;13.15;;;5.55;;
22289;SDS011;11313;50.116;8.424;2024-01-11T08:27:49;11.88;;;5.40;;
22289;SDS011;11313;50.116;8.424;2024-01-11T08:30:14;12.23;;;5.65;;
22289;SDS011;11313;50.116;8.424;2024-01-11T08:32:40;11.60;;;5.90;;
22289;SDS011;11313;50.116;8.424;2024-01-11T08:35:07;15.82;;;6.40;;
22289;SDS011;11313;50.116;8.424;2024-01-11T08:37:34;10.05;;;5.88;;
22289;SDS011;11313;50.116;8.424;2024-01-11T08:40:00;18.15;;;6.30;;
22289;SDS011;11313;50.116;8.424;2024-01-11T08:42:26;16.80;;;6.93;;
22289;SDS011;11313;50.116;8.424;2024-01-11T08:44:52;18.27;;;6.35;;
22289;SDS011;11313;50.116;8.424;2024-01-11T08:47:18;11.07;;;6.13;;
22289;SDS011;11313;50.116;8.424;2024-01-11T08:49:44;14.77;;;6.82;;
22289;SDS011;11313;50.116;8.424;2024-01-11T08:52:09;17.42;;;6.22;;
22289;SDS011;11313;50.116;8.424;2024-01-11T08:54:35;14.93;;;6.60;;
22289;SDS011;11313;50.116;8.424;2024-01-11T08:57:00;13.77;;;6.43;;
22289;SDS011;11313;50.116;8.424;2024-01-11T08:59:26;17.63;;;6.65;;
22289;SDS011;11313;50.116;8.424;2024-01-11T09:01:52;17.83;;;6.88;;
22289;SDS011;11313;50.116;8.424;2024-01-11T09:04:17;15.75;;;6.95;;
22289;SDS011;11313;50.116;8.424;2024-01-11T09:06:43;14.60;;;6.70;;
22289;SDS011;11313;50.116;8.424;2024-01-11T09:09:10;13.00;;;6.78;;
22289;SDS011;11313;50.116;8.424;2024-01-11T09:11:36;17.00;;;7.05;;
22289;SDS011;11313;50.116;8.424;2024-01-11T09:14:02;12.00;;;6.75;;
22289;SDS011;11313;50.116;8.424;2024-01-11T09:16:28;17.02;;;7.30;;
22289;SDS011;11313;50.116;8.424;2024-01-11T09:18:53;14.65;;;6.65;;
22289;SDS011;11313;50.116;8.424;2024-01-11T09:21:19;15.98;;;7.35;;
22289;SDS011;11313;50.116;8.424;2024-01-11T09:23:45;11.88;;;7.20;;
22289;SDS011;11313;50.116;8.424;2024-01-11T09:26:10;11.93;;;6.75;;
22289;SDS011;11313;50.116;8.424;2024-01-11T09:28:37;11.88;;;7.03;;
22289;SDS011;11313;50.116;8.424;2024-01-11T09:31:03;9.73;;;6.97;;
22289;SDS011;11313;50.116;8.424;2024-01-11T09:33:28;13.55;;;7.40;;
22289;SDS011;11313;50.116;8.424;2024-01-11T09:35:54;11.75;;;6.60;;
22289;SDS011;11313;50.116;8.424;2024-01-11T09:38:23;12.48;;;7.30;;
22289;SDS011;11313;50.116;8.424;2024-01-11T09:40:57;10.90;;;7.13;;
22289;SDS011;11313;50.116;8.424;2024-01-11T09:43:32;12.38;;;7.20;;
22289;SDS011;11313;50.116;8.424;2024-01-11T09:46:00;11.13;;;7.05;;
22289;SDS011;11313;50.116;8.424;2024-01-11T09:50:57;12.02;;;7.63;;
22289;SDS011;11313;50.116;8.424;2024-01-11T09:53:26;12.10;;;6.85;;
22289;SDS011;11313;50.116;8.424;2024-01-11T09:55:53;10.82;;;7.13;;
22289;SDS011;11313;50.116;8.424;2024-01-11T09:58:20;12.80;;;7.35;;
22289;SDS011;11313;50.116;8.424;2024-01-11T10:00:46;11.23;;;7.45;;
22289;SDS011;11313;50.116;8.424;2024-01-11T10:03:15;14.32;;;7.57;;
22289;SDS011;11313;50.116;8.424;2024-01-11T10:05:41;11.23;;;7.30;;
22289;SDS011;11313;50.116;8.424;2024-01-11T10:08:07;11.50;;;6.75;;
22289;SDS011;11313;50.116;8.424;2024-01-11T10:10:33;11.05;;;7.35;;
22289;SDS011;11313;50.116;8.424;2024-01-11T10:12:59;12.55;;;7.35;;
22289;SDS011;11313;50.116;8.424;2024-01-11T10:15:25;9.63;;;7.15;;
22289;SDS011;11313;50.116;8.424;2024-01-11T10:17:50;9.25;;;6.60;;
22289;SDS011;11313;50.116;8.424;2024-01-11T10:20:16;12.18;;;7.43;;
22289;SDS011;11313;50.116;8.424;2024-01-11T10:22:48;10.60;;;7.18;;
22289;SDS011;11313;50.116;8.424;2024-01-11T10:25:14;10.13;;;7.07;;
22289;SDS011;11313;50.116;8.424;2024-01-11T10:27:42;10.77;;;7.22;;
22289;SDS011;11313;50.116;8.424;2024-01-11T10:30:12;11.73;;;7.80;;
22289;SDS011;11313;50.116;8.424;2024-01-11T10:32:40;11.02;;;7.55;;
22289;SDS011;11313;50.116;8.424;2024-01-11T10:35:06;11.70;;;7.55;;
22289;SDS011;11313;50.116;8.424;2024-01-11T10:37:32;15.00;;;7.57;;
22289;SDS011;11313;50.116;8.424;2024-01-11T10:39:58;10.60;;;7.57;;
22289;SDS011;11313;50.116;8.424;2024-01-11T10:42:29;14.00;;;7.82;;
22289;SDS011;11313;50.116;8.424;2024-01-11T10:44:56;11.43;;;7.70;;
22289;SDS011;11313;50.116;8.424;2024-01-11T10:47:28;11.77;;;7.90;;
22289;SDS011;11313;50.116;8.424;2024-01-11T10:49:56;10.60;;;7.05;;
22289;SDS011;11313;50.116;8.424;2024-01-11T10:52:28;15.48;;;7.60;;
22289;SDS011;11313;50.116;8.424;2024-01-11T10:54:56;13.48;;;7.55;;
22289;SDS011;11313;50.116;8.424;2024-01-11T10:57:24;13.32;;;8.23;;
22289;SDS011;11313;50.116;8.424;2024-01-11T10:59:50;13.27;;;7.38;;
22289;SDS011;11313;50.116;8.424;2024-01-11T11:02:17;10.65;;;7.38;;
22289;SDS011;11313;50.116;8.424;2024-01-11T11:04:44;9.55;;;7.35;;
22289;SDS011;11313;50.116;8.424;2024-01-11T11:07:11;11.60;;;8.07;;
22289;SDS011;11313;50.116;8.424;2024-01-11T11:09:39;13.82;;;7.88;;
22289;SDS011;11313;50.116;8.424;2024-01-11T11:12:08;11.23;;;7.90;;
22289;SDS011;11313;50.116;8.424;2024-01-11T11:14:35;12.02;;;7.70;;
22289;SDS011;11313;50.116;8.424;2024-01-11T11:17:03;15.35;;;8.75;;
22289;SDS011;11313;50.116;8.424;2024-01-11T11:19:30;18.27;;;9.00;;
22289;SDS011;11313;50.116;8.424;2024-01-11T11:21:55;17.90;;;8.90;;
22289;SDS011;11313;50.116;8.424;2024-01-11T11:24:21;13.88;;;9.15;;
22289;SDS011;11313;50.116;8.424;2024-01-11T11:26:47;16.00;;;10.40;;
22289;SDS011;11313;50.116;8.424;2024-01-11T11:29:12;17.67;;;10.15;;
22289;SDS011;11313;50.116;8.424;2024-01-11T11:31:44;15.65;;;10.18;;
22289;SDS011;11313;50.116;8.424;2024-01-11T11:34:19;15.02;;;10.95;;
22289;SDS011;11313;50.116;8.424;2024-01-11T11:36:48;17.92;;;11.50;;
22289;SDS011;11313;50.116;8.424;2024-01-11T11:39:19;15.80;;;10.40;;
22289;SDS011;11313;50.116;8.424;2024-01-11T11:41:45;17.20;;;11.85;;
22289;SDS011;11313;50.116;8.424;2024-01-11T11:44:12;13.98;;;10.68;;
22289;SDS011;11313;50.116;8.424;2024-01-11T11:46:40;15.98;;;10.82;;
22289;SDS011;11313;50.116;8.424;2024-01-11T11:49:06;16.92;;;10.68;;
22289;SDS011;11313;50.116;8.424;2024-01-11T11:51:32;15.32;;;10.65;;
22289;SDS011;11313;50.116;8.424;2024-01-11T11:53:58;18.58;;;10.77;;
22289;SDS011;11313;50.116;8.424;2024-01-11T11:56:23;14.85;;;10.68;;
22289;SDS011;11313;50.116;8.424;2024-01-11T11:58:50;15.43;;;10.25;;
22289;SDS011;11313;50.116;8.424;2024-01-11T12:01:17;15.95;;;10.60;;
22289;SDS011;11313;50.116;8.424;2024-01-11T12:03:44;15.07;;;9.93;;
22289;SDS011;11313;50.116;8.424;2024-01-11T12:06:16;15.45;;;10.60;;
22289;SDS011;11313;50.116;8.424;2024-01-11T12:08:43;14.60;;;9.90;;
22289;SDS011;11313;50.116;8.424;2024-01-11T12:11:12;16.25;;;10.98;;
22289;SDS011;11313;50.116;8.424;2024-01-11T12:13:39;14.63;;;10.35;;
22289;SDS011;11313;50.116;8.424;2024-01-11T12:16:05;14.20;;;9.95;;
22289;SDS011;11313;50.116;8.424;2024-01-11T12:18:31;15.88;;;9.93;;
22289;SDS011;11313;50.116;8.424;2024-01-11T12:20:56;16.55;;;10.25;;
22289;SDS011;11313;50.116;8.424;2024-01-11T12:23:22;18.27;;;10.05;;
22289;SDS011;11313;50.116;8.424;2024-01-11T12:25:48;17.50;;;10.18;;
22289;SDS011;11313;50.116;8.424;2024-01-11T12:28:13;13.07;;;9.32;;
22289;SDS011;11313;50.116;8.424;2024-01-11T12:30:39;16.50;;;9.50;;
22289;SDS011;11313;50.116;8.424;2024-01-11T12:33:05;15.48;;;10.05;;
22289;SDS011;11313;50.116;8.424;2024-01-11T12:35:31;16.35;;;9.52;;
22289;SDS011;11313;50.116;8.424;2024-01-11T12:42:53;15.38;;;9.02;;
22289;SDS011;11313;50.116;8.424;2024-01-11T12:45:22;17.42;;;9.95;;
22289;SDS011;11313;50.116;8.424;2024-01-11T12:47:49;14.23;;;9.48;;
22289;SDS011;11313;50.116;8.424;2024-01-11T12:50:15;17.42;;;9.57;;
22289;SDS011;11313;50.116;8.424;2024-01-11T12:52:41;15.10;;;9.85;;
22289;SDS011;11313;50.116;8.424;2024-01-11T12:55:07;19.02;;;9.50;;
22289;SDS011;11313;50.116;8.424;2024-01-11T12:57:34;16.75;;;9.23;;
22289;SDS011;11313;50.116;8.424;2024-01-11T13:00:09;18.08;;;9.98;;
22289;SDS011;11313;50.116;8.424;2024-01-11T13:02:36;17.77;;;9.57;;
22289;SDS011;11313;50.116;8.424;2024-01-11T13:05:02;12.95;;;8.80;;
22289;SDS011;11313;50.116;8.424;2024-01-11T13:07:28;15.88;;;9.73;;
22289;SDS011;11313;50.116;8.424;2024-01-11T13:09:55;15.38;;;9.30;;
22289;SDS011;11313;50.116;8.424;2024-01-11T13:12:21;16.65;;;9.95;;
22289;SDS011;11313;50.116;8.424;2024-01-11T13:14:49;17.13;;;9.38;;
22289;SDS011;11313;50.116;8.424;2024-01-11T13:17:17;15.95;;;9.93;;
22289;SDS011;11313;50.116;8.424;2024-01-11T13:19:43;14.43;;;9.40;;
22289;SDS011;11313;50.116;8.424;2024-01-11T13:22:09;17.02;;;9.73;;
22289;SDS011;11313;50.116;8.424;2024-01-11T13:24:35;16.20;;;9.77;;
22289;SDS011;11313;50.116;8.424;2024-01-11T13:27:01;15.73;;;10.15;;
22289;SDS011;11313;50.116;8.424;2024-01-11T13:29:26;16.17;;;10.05;;
22289;SDS011;11313;50.116;8.424;2024-01-11T13:31:52;16.60;;;9.40;;
22289;SDS011;11313;50.116;8.424;2024-01-11T13:34:17;17.60;;;10.00;;
22289;SDS011;11313;50.116;8.424;2024-01-11T13:36:43;15.65;;;10.65;;
22289;SDS011;11313;50.116;8.424;2024-01-11T13:39:09;16.75;;;10.13;;
22289;SDS011;11313;50.116;8.424;2024-01-11T13:41:35;16.73;;;10.30;;
22289;SDS011;11313;50.116;8.424;2024-01-11T13:44:01;18.55;;;10.75;;
22289;SDS011;11313;50.116;8.424;2024-01-11T13:46:27;16.23;;;10.32;;
22289;SDS011;11313;50.116;8.424;2024-01-11T13:48:52;17.70;;;9.95;;
22289;SDS011;11313;50.116;8.424;2024-01-11T13:51:18;17.80;;;10.18;;
22289;SDS011;11313;50.116;8.424;2024-01-11T13:53:43;17.48;;;10.55;;
22289;SDS011;11313;50.116;8.424;2024-01-11T13:56:09;17.40;;;10.48;;
22289;SDS011;11313;50.116;8.424;2024-01-11T13:58:35;20.02;;;11.07;;
22289;SDS011;11313;50.116;8.424;2024-01-11T14:01:01;15.75;;;10.13;;
22289;SDS011;11313;50.116;8.424;2024-01-11T14:03:26;18.30;;;10.65;;
22289;SDS011;11313;50.116;8.424;2024-01-11T14:05:52;19.73;;;10.75;;
22289;SDS011;11313;50.116;8.424;2024-01-11T14:08:18;21.48;;;10.80;;
22289;SDS011;11313;50.116;8.424;2024-01-11T14:10:43;17.08;;;10.52;;
22289;SDS011;11313;50.116;8.424;2024-01-11T14:13:09;20.38;;;10.98;;
22289;SDS011;11313;50.116;8.424;2024-01-11T14:15:34;18.20;;;11.20;;
22289;SDS011;11313;50.116;8.424;2024-01-11T14:18:00;18.55;;;10.80;;
22289;SDS011;11313;50.116;8.424;2024-01-11T14:20:25;17.50;;;10.60;;
22289;SDS011;11313;50.116;8.424;2024-01-11T14:22:52;16.92;;;11.02;;
22289;SDS011;11313;50.116;8.424;2024-01-11T14:25:18;18.88;;;10.63;;
22289;SDS011;11313;50.116;8.424;2024-01-11T14:27:45;17.45;;;10.93;;
22289;SDS011;11313;50.116;8.424;2024-01-11T14:30:12;19.42;;;11.93;;
22289;SDS011;11313;50.116;8.424;2024-01-11T14:32:38;16.83;;;10.85;;
22289;SDS011;11313;50.116;8.424;2024-01-11T14:35:04;18.13;;;10.98;;
22289;SDS011;11313;50.116;8.424;2024-01-11T14:37:34;19.13;;;11.43;;
22289;SDS011;11313;50.116;8.424;2024-01-11T14:40:00;18.70;;;11.73;;
22289;SDS011;11313;50.116;8.424;2024-01-11T14:42:26;17.75;;;11.27;;
22289;SDS011;11313;50.116;8.424;2024-01-11T14:44:52;14.27;;;10.80;;